TimeEDT,TemperatureF,Dew PointF,Humidity,Sea Level PressureIn,VisibilityMPH,Wind Direction,Wind SpeedMPH,Gust SpeedMPH,PrecipitationIn,Events,Conditions,WindDirDegrees,DateUTC
12:15 AM,44.6,39.2,81,30.11,10.0,Calm,Calm,-,N/A,,Overcast,0,2012-10-08 04:15:00
12:35 AM,44.6,39.2,81,30.11,10.0,Calm,Calm,-,N/A,,Overcast,0,2012-10-08 04:35:00
12:55 AM,42.8,39.2,87,30.11,10.0,Calm,Calm,-,N/A,,Scattered Clouds,0,2012-10-08 04:55:00
1:15 AM,42.8,37.4,81,30.12,10.0,Calm,Calm,-,N/A,,Clear,0,2012-10-08 05:15:00
1:35 AM,42.8,37.4,81,30.12,3.0,Calm,Calm,-,N/A,,Clear,0,2012-10-08 05:35:00
1:55 AM,41.0,37.4,87,30.12,8.0,Calm,Calm,-,N/A,,Clear,0,2012-10-08 05:55:00
2:15 AM,39.2,37.4,93,30.12,6.0,Calm,Calm,-,N/A,,Clear,0,2012-10-08 06:15:00
2:35 AM,41.0,37.4,87,30.12,7.0,NNW,4.6,-,N/A,,Clear,330,2012-10-08 06:35:00
2:55 AM,39.2,37.4,93,30.12,3.0,NW,4.6,-,N/A,,Clear,320,2012-10-08 06:55:00
3:15 AM,39.2,37.4,93,30.12,8.0,NW,3.5,-,N/A,,Clear,310,2012-10-08 07:15:00
3:35 AM,39.2,37.4,93,30.13,10.0,NW,5.8,-,N/A,,Clear,320,2012-10-08 07:35:00
3:55 AM,39.2,37.4,93,30.13,10.0,NW,4.6,-,N/A,,Clear,320,2012-10-08 07:55:00
4:15 AM,39.2,37.4,93,30.15,10.0,NW,5.8,-,N/A,,Clear,320,2012-10-08 08:15:00
4:35 AM,41.0,37.4,87,30.14,10.0,NW,5.8,-,N/A,,Clear,320,2012-10-08 08:35:00
4:55 AM,39.2,37.4,93,30.14,10.0,NNW,4.6,-,N/A,,Clear,330,2012-10-08 08:55:00
5:15 AM,39.2,35.6,87,30.15,10.0,NNW,3.5,-,N/A,,Clear,340,2012-10-08 09:15:00
5:35 AM,37.4,32.0,81,30.15,4.0,North,3.5,-,N/A,,Clear,350,2012-10-08 09:35:00
5:45 AM,-9999,-9999,N/A,30.15,5.0,Calm,Calm,-,N/A,,Clear,0,2012-10-08 09:45:00
6:45 AM,37.4,35.6,93,30.18,6.0,Calm,Calm,-,N/A,,Clear,0,2012-10-08 10:45:00
7:45 AM,39.2,37.4,93,30.22,6.0,Calm,Calm,-,N/A,,Clear,0,2012-10-08 11:45:00
8:45 AM,42.8,39.2,87,30.25,10.0,Calm,Calm,-,N/A,,Clear,0,2012-10-08 12:45:00
9:50 AM,48.2,39.2,71,30.27,10.0,NNW,5.8,-,N/A,,Mostly Cloudy,340,2012-10-08 13:50:00
10:45 AM,48.2,39.2,71,30.27,10.0,North,6.9,-,N/A,,Mostly Cloudy,10,2012-10-08 14:45:00
11:45 AM,51.8,41.0,67,30.26,10.0,NNE,5.8,-,N/A,,Mostly Cloudy,20,2012-10-08 15:45:00
12:45 PM,51.8,37.4,58,30.26,10.0,NNW,6.9,-,N/A,,Mostly Cloudy,340,2012-10-08 16:45:00
1:45 PM,51.8,37.4,58,30.27,10.0,Calm,Calm,-,N/A,,Mostly Cloudy,0,2012-10-08 17:45:00
2:45 PM,51.8,37.4,58,30.27,10.0,SSW,4.6,-,N/A,,Mostly Cloudy,210,2012-10-08 18:45:00
3:45 PM,51.8,37.4,58,30.25,10.0,Calm,Calm,-,N/A,,Overcast,0,2012-10-08 19:45:00
4:45 PM,51.8,39.2,62,30.26,10.0,SSW,3.5,-,N/A,,Overcast,210,2012-10-08 20:45:00
5:45 PM,50.0,39.2,66,30.29,10.0,Calm,Calm,-,N/A,,Overcast,0,2012-10-08 21:45:00
6:45 PM,48.2,41.0,76,30.30,10.0,South,4.6,-,N/A,,Overcast,180,2012-10-08 22:45:00
7:45 PM,46.4,42.8,87,30.28,10.0,Calm,Calm,-,N/A,,Overcast,0,2012-10-08 23:45:00
8:55 PM,46.4,42.8,87,30.29,10.0,Calm,Calm,-,N/A,,Partly Cloudy,0,2012-10-09 00:55:00
9:15 PM,46.4,42.8,87,30.29,10.0,Calm,Calm,-,N/A,,Mostly Cloudy,0,2012-10-09 01:15:00
9:35 PM,46.4,42.8,87,30.30,10.0,Calm,Calm,-,N/A,,Overcast,0,2012-10-09 01:35:00
9:55 PM,46.4,42.8,87,30.29,10.0,Calm,Calm,-,N/A,,Overcast,0,2012-10-09 01:55:00
10:15 PM,46.4,41.0,81,30.29,10.0,Calm,Calm,-,N/A,,Overcast,0,2012-10-09 02:15:00
10:35 PM,46.4,41.0,81,30.30,10.0,NW,3.5,-,N/A,,Mostly Cloudy,320,2012-10-09 02:35:00
10:55 PM,46.4,41.0,81,30.29,10.0,North,3.5,-,N/A,,Partly Cloudy,10,2012-10-09 02:55:00
11:15 PM,44.6,41.0,87,30.29,10.0,NNE,3.5,-,N/A,,Clear,30,2012-10-09 03:15:00
11:55 PM,46.4,41.0,81,30.27,10.0,NE,5.8,-,N/A,,Clear,40,2012-10-09 03:55:00